createdAt,value
2022-11-27T00:01:57.044Z,51.07
2022-11-27T00:04:23.413Z,51.19
2022-11-27T00:06:49.734Z,51.65
2022-11-27T00:09:16.413Z,52.19
2022-11-27T00:11:42.835Z,52.35
2022-11-27T00:14:10.577Z,51.82
2022-11-27T00:16:37.047Z,53.15
2022-11-27T00:19:03.529Z,53.04
2022-11-27T00:21:30.083Z,53.30
2022-11-27T00:23:56.451Z,52.99
2022-11-27T00:26:22.838Z,53.01
2022-11-27T00:28:49.220Z,52.93
2022-11-27T00:31:15.815Z,52.96
2022-11-27T00:33:42.373Z,52.53
2022-11-27T00:36:09.018Z,53.01
2022-11-27T00:38:38.676Z,52.64
2022-11-27T00:41:05.956Z,53.15
2022-11-27T00:43:39.827Z,54.40
2022-11-27T00:46:11.534Z,54.01
2022-11-27T00:48:38.043Z,53.37
2022-11-27T00:51:04.544Z,53.97
2022-11-27T00:53:31.024Z,53.07
2022-11-27T00:55:57.399Z,54.29
2022-11-27T00:58:23.878Z,53.57
2022-11-27T01:00:50.374Z,53.34
2022-11-27T01:03:16.809Z,55.02
2022-11-27T01:05:45.664Z,53.35
2022-11-27T01:08:12.221Z,53.59
2022-11-27T01:10:38.615Z,55.22
2022-11-27T01:13:05.051Z,54.85
2022-11-27T01:15:31.665Z,53.93
2022-11-27T01:17:58.049Z,52.93
2022-11-27T01:20:24.758Z,52.83
2022-11-27T01:22:52.364Z,52.53
2022-11-27T01:25:21.861Z,53.57
2022-11-27T01:27:50.583Z,52.63
2022-11-27T01:30:16.949Z,52.96
2022-11-27T01:32:43.351Z,53.06
2022-11-27T01:35:09.838Z,52.51
2022-11-27T01:37:36.267Z,53.02
2022-11-27T01:40:02.885Z,52.36
2022-11-27T01:42:29.365Z,53.26
2022-11-27T01:44:55.722Z,53.03
2022-11-27T01:47:22.137Z,53.02
2022-11-27T01:49:48.561Z,52.60
2022-11-27T01:52:15.024Z,52.51
2022-11-27T01:54:41.845Z,52.97
2022-11-27T01:57:08.453Z,53.58
2022-11-27T01:59:34.885Z,52.75
2022-11-27T02:02:01.385Z,53.03
2022-11-27T02:04:27.976Z,53.25
2022-11-27T02:06:54.665Z,52.81
2022-11-27T02:09:21.188Z,53.60
2022-11-27T02:11:47.874Z,53.49
2022-11-27T02:14:15.358Z,53.53
2022-11-27T02:16:41.904Z,53.18
2022-11-27T02:19:08.524Z,53.07
2022-11-27T02:21:35.035Z,53.95
2022-11-27T02:24:01.473Z,54.39
2022-11-27T02:26:28.090Z,54.39
2022-11-27T02:28:54.626Z,53.83
2022-11-27T02:31:22.540Z,53.91
2022-11-27T02:33:49.051Z,53.35
2022-11-27T02:36:15.701Z,53.40
2022-11-27T02:38:42.087Z,52.92
2022-11-27T02:41:08.542Z,52.50
2022-11-27T02:43:37.251Z,53.24
2022-11-27T02:46:03.701Z,53.95
2022-11-27T02:48:30.303Z,53.54
2022-11-27T02:50:56.834Z,53.76
2022-11-27T02:53:23.176Z,53.81
2022-11-27T02:55:49.706Z,53.07
2022-11-27T02:58:16.216Z,52.89
2022-11-27T03:00:42.796Z,53.48
2022-11-27T03:03:09.259Z,54.10
2022-11-27T03:05:35.738Z,53.65
2022-11-27T03:08:02.440Z,53.27
2022-11-27T03:10:28.805Z,53.85
2022-11-27T03:12:55.236Z,53.85
2022-11-27T03:15:21.650Z,53.50
2022-11-27T03:17:48.056Z,53.39
2022-11-27T03:20:14.472Z,53.86
2022-11-27T03:22:40.908Z,54.04
2022-11-27T03:25:07.338Z,53.51
2022-11-27T03:27:34.092Z,53.31
2022-11-27T03:30:00.426Z,52.82
2022-11-27T03:32:26.851Z,52.85
2022-11-27T03:34:53.473Z,52.46
2022-11-27T03:37:19.944Z,52.65
2022-11-27T03:39:46.399Z,52.39
2022-11-27T03:42:13.297Z,53.29
2022-11-27T03:44:39.901Z,53.21
2022-11-27T03:47:06.894Z,52.83
2022-11-27T03:49:33.703Z,53.05
2022-11-27T03:52:00.129Z,52.59
2022-11-27T03:54:26.548Z,52.03
2022-11-27T03:56:52.986Z,52.81
2022-11-27T03:59:19.452Z,52.61
2022-11-27T04:01:46.250Z,53.27
2022-11-27T04:04:12.782Z,53.37
2022-11-27T04:06:39.200Z,53.04
2022-11-27T04:09:06.664Z,53.42
2022-11-27T04:11:33.264Z,52.93
2022-11-27T04:13:59.597Z,52.90
2022-11-27T04:16:26.132Z,53.74
2022-11-27T04:18:54.801Z,53.83
2022-11-27T04:21:21.275Z,53.76
2022-11-27T04:23:48.711Z,53.46
2022-11-27T04:26:15.135Z,53.32
2022-11-27T04:28:41.582Z,53.19
2022-11-27T04:31:08.249Z,53.26
2022-11-27T04:33:34.826Z,52.79
2022-11-27T04:36:01.248Z,52.63
2022-11-27T04:38:27.854Z,53.45
2022-11-27T04:40:54.440Z,53.08
2022-11-27T04:43:20.829Z,52.60
2022-11-27T04:45:47.366Z,52.39
2022-11-27T04:48:13.859Z,52.25
2022-11-27T04:50:40.355Z,52.32
2022-11-27T04:53:06.849Z,53.13
2022-11-27T04:55:33.220Z,52.33
2022-11-27T04:57:59.585Z,52.40
2022-11-27T05:00:26.124Z,52.27
2022-11-27T05:02:52.538Z,53.66
2022-11-27T05:05:19.717Z,53.97
2022-11-27T05:07:46.632Z,53.76
2022-11-27T05:10:13.044Z,53.19
2022-11-27T05:12:39.413Z,53.97
2022-11-27T05:15:05.844Z,53.78
2022-11-27T05:17:32.382Z,53.96
2022-11-27T05:19:58.877Z,53.43
2022-11-27T05:22:25.570Z,53.84
2022-11-27T05:24:51.966Z,53.76
2022-11-27T05:27:18.357Z,53.89
2022-11-27T05:29:44.805Z,53.38
2022-11-27T05:32:11.181Z,53.84
2022-11-27T05:34:37.700Z,52.89
2022-11-27T05:37:04.663Z,53.43
2022-11-27T05:39:31.010Z,53.30
2022-11-27T05:41:57.406Z,53.11
2022-11-27T05:44:23.890Z,54.12
2022-11-27T05:46:53.214Z,53.98
2022-11-27T05:49:19.601Z,54.28
2022-11-27T05:51:51.001Z,53.97
2022-11-27T05:54:17.973Z,54.00
2022-11-27T05:56:44.800Z,53.57
2022-11-27T05:59:11.319Z,53.84
2022-11-27T06:01:37.879Z,53.65
2022-11-27T06:04:04.337Z,53.34
2022-11-27T06:06:30.798Z,53.48
2022-11-27T06:08:57.340Z,53.54
2022-11-27T06:11:23.741Z,53.73
2022-11-27T06:13:50.201Z,54.65
2022-11-27T06:16:16.695Z,53.53
2022-11-27T06:18:43.086Z,54.63
2022-11-27T06:21:09.490Z,54.52
2022-11-27T06:23:36.129Z,54.33
2022-11-27T06:26:02.543Z,54.52
2022-11-27T06:28:28.903Z,54.91
2022-11-27T06:30:55.254Z,54.91
2022-11-27T06:33:21.616Z,54.23
2022-11-27T06:35:48.067Z,54.65
2022-11-27T06:38:14.443Z,55.06
2022-11-27T06:40:40.967Z,54.96
2022-11-27T06:43:07.609Z,54.88
2022-11-27T06:45:33.975Z,54.82
2022-11-27T06:48:00.453Z,54.63
2022-11-27T06:50:27.101Z,54.81
2022-11-27T06:52:54.547Z,54.35
2022-11-27T06:55:20.954Z,54.94
2022-11-27T06:57:47.531Z,55.02
2022-11-27T07:00:14.073Z,55.08
2022-11-27T07:02:40.529Z,54.29
2022-11-27T07:05:07.272Z,54.85
2022-11-27T07:07:33.839Z,53.99
2022-11-27T07:10:00.290Z,54.89
2022-11-27T07:12:26.689Z,54.46
2022-11-27T07:14:53.411Z,55.14
2022-11-27T07:17:19.803Z,54.67
2022-11-27T07:19:46.413Z,55.23
2022-11-27T07:22:13.069Z,55.57
2022-11-27T07:24:39.984Z,54.97
2022-11-27T07:27:06.572Z,54.44
2022-11-27T07:29:33.129Z,53.88
2022-11-27T07:32:00.609Z,53.44
2022-11-27T07:34:27.178Z,53.52
2022-11-27T07:36:54.627Z,52.96
2022-11-27T07:39:39.412Z,52.83
2022-11-27T07:42:36.893Z,51.90
2022-11-27T07:44:57.269Z,51.53
2022-11-27T07:47:23.652Z,51.53
2022-11-27T07:49:50.229Z,51.26
2022-11-27T07:52:16.677Z,51.83
2022-11-27T07:54:43.161Z,52.13
2022-11-27T07:57:09.591Z,52.36
2022-11-27T07:59:36.037Z,52.46
2022-11-27T08:02:02.820Z,52.82
2022-11-27T08:04:29.247Z,52.20
2022-11-27T08:06:55.688Z,51.99
2022-11-27T08:09:22.335Z,51.96
2022-11-27T08:11:48.905Z,51.77
2022-11-27T08:14:15.362Z,50.90
2022-11-27T08:16:42.022Z,51.36
2022-11-27T08:19:08.401Z,50.77
2022-11-27T08:21:36.074Z,50.65
2022-11-27T08:24:02.531Z,50.28
2022-11-27T08:26:29.145Z,49.94
2022-11-27T08:28:55.535Z,49.58
2022-11-27T08:31:22.464Z,49.37
2022-11-27T08:33:48.956Z,48.63
2022-11-27T08:36:18.344Z,48.41
2022-11-27T08:38:45.097Z,48.60
2022-11-27T08:41:11.474Z,49.26
2022-11-27T08:43:37.917Z,49.32
2022-11-27T08:46:04.455Z,49.30
2022-11-27T08:48:30.812Z,48.64
2022-11-27T08:50:57.836Z,49.31
2022-11-27T08:53:24.275Z,48.70
2022-11-27T08:55:50.656Z,48.35
2022-11-27T08:58:17.040Z,48.64
2022-11-27T09:00:43.632Z,48.24
2022-11-27T09:03:10.055Z,47.32
2022-11-27T09:05:36.445Z,48.59
2022-11-27T09:08:03.016Z,49.00
2022-11-27T09:10:29.664Z,47.64
2022-11-27T09:12:56.052Z,47.52
2022-11-27T09:15:22.462Z,48.22
2022-11-27T09:17:48.830Z,47.97
2022-11-27T09:20:15.367Z,48.23
2022-11-27T09:22:41.812Z,46.95
2022-11-27T09:25:08.169Z,47.41
2022-11-27T09:27:34.582Z,47.85
2022-11-27T09:30:01.492Z,47.54
2022-11-27T09:32:28.089Z,47.95
2022-11-27T09:34:54.997Z,48.37
2022-11-27T09:37:21.680Z,48.12
2022-11-27T09:39:48.073Z,47.74
2022-11-27T09:42:16.694Z,46.73
2022-11-27T09:44:43.553Z,47.65
2022-11-27T09:47:10.234Z,47.87
2022-11-27T09:49:36.776Z,47.14
2022-11-27T09:52:03.310Z,47.39
2022-11-27T09:54:29.723Z,46.34
2022-11-27T09:56:56.124Z,46.65
2022-11-27T09:59:22.469Z,46.41
2022-11-27T10:01:51.060Z,46.40
2022-11-27T10:04:17.877Z,46.78
2022-11-27T10:06:44.400Z,46.90
2022-11-27T10:09:10.852Z,47.49
2022-11-27T10:11:37.277Z,47.30
2022-11-27T10:14:03.825Z,48.44
2022-11-27T10:16:30.389Z,47.27
2022-11-27T10:18:56.733Z,46.92
2022-11-27T10:21:23.576Z,48.94
2022-11-27T10:23:49.968Z,48.31
2022-11-27T10:26:16.375Z,47.93
2022-11-27T10:28:42.838Z,46.17
2022-11-27T10:31:09.221Z,46.35
2022-11-27T10:33:35.586Z,47.43
2022-11-27T10:36:01.990Z,47.17
2022-11-27T10:38:28.613Z,48.44
2022-11-27T10:40:54.974Z,48.02
2022-11-27T10:43:21.405Z,55.79
2022-11-27T10:45:47.784Z,51.50
2022-11-27T10:48:14.178Z,49.10
2022-11-27T10:50:40.656Z,48.20
2022-11-27T10:53:07.019Z,47.33
2022-11-27T10:55:33.333Z,46.29
2022-11-27T10:57:59.813Z,46.08
2022-11-27T11:00:26.332Z,45.42
2022-11-27T11:02:52.776Z,44.58
2022-11-27T11:08:05.525Z,43.10
2022-11-27T11:10:31.967Z,43.35
2022-11-27T11:12:58.414Z,43.07
2022-11-27T11:15:24.801Z,43.42
2022-11-27T11:17:51.259Z,42.87
2022-11-27T11:20:17.714Z,43.41
2022-11-27T11:22:44.083Z,43.38
2022-11-27T11:25:10.453Z,43.20
2022-11-27T11:27:36.945Z,42.97
2022-11-27T11:30:05.363Z,42.47
2022-11-27T11:32:32.029Z,42.64
2022-11-27T11:35:01.174Z,44.13
2022-11-27T11:37:28.377Z,44.18
2022-11-27T11:39:56.015Z,44.82
2022-11-27T11:42:22.545Z,44.39
2022-11-27T11:44:49.325Z,44.53
2022-11-27T11:47:15.968Z,45.04
2022-11-27T11:49:43.907Z,44.99
2022-11-27T11:52:10.747Z,44.83
2022-11-27T11:54:37.319Z,44.76
2022-11-27T11:57:04.170Z,45.46
2022-11-27T11:59:30.526Z,45.62
2022-11-27T12:01:57.531Z,45.96
2022-11-27T12:04:24.114Z,46.03
2022-11-27T12:06:50.836Z,46.03
2022-11-27T12:09:17.413Z,46.33
2022-11-27T12:11:43.801Z,46.57
2022-11-27T12:14:10.143Z,46.44
2022-11-27T12:16:36.562Z,46.31
2022-11-27T12:19:03.336Z,46.15
2022-11-27T12:21:29.778Z,46.15
2022-11-27T12:23:56.250Z,45.77
2022-11-27T12:26:22.732Z,45.88
2022-11-27T12:28:52.070Z,45.91
2022-11-27T12:31:21.378Z,45.44
2022-11-27T12:33:47.801Z,45.40
2022-11-27T12:36:14.149Z,45.11
2022-11-27T12:38:40.591Z,45.24
2022-11-27T12:41:07.132Z,45.17
2022-11-27T12:43:33.733Z,43.83
2022-11-27T12:46:01.042Z,44.00
2022-11-27T12:48:27.602Z,43.13
2022-11-27T12:50:53.966Z,43.67
2022-11-27T12:53:24.840Z,44.14
2022-11-27T12:55:51.613Z,42.84
2022-11-27T12:58:18.183Z,44.57
2022-11-27T13:00:45.277Z,44.65
2022-11-27T13:03:11.739Z,44.31
2022-11-27T13:05:38.384Z,44.69
2022-11-27T13:08:07.378Z,44.51
2022-11-27T13:10:34.190Z,44.40
2022-11-27T13:13:00.986Z,44.25
2022-11-27T13:15:27.382Z,45.20
2022-11-27T13:17:56.130Z,43.55
2022-11-27T13:20:23.062Z,43.45
2022-11-27T13:22:49.487Z,43.79
2022-11-27T13:25:16.177Z,43.43
2022-11-27T13:27:42.923Z,42.20
2022-11-27T13:30:09.383Z,40.72
2022-11-27T13:32:35.999Z,41.71
2022-11-27T13:35:02.647Z,42.34
2022-11-27T13:37:29.506Z,40.57
2022-11-27T13:39:56.009Z,38.12
2022-11-27T13:42:23.153Z,40.46
2022-11-27T13:44:49.735Z,39.67
2022-11-27T13:47:17.466Z,39.93
2022-11-27T13:49:46.905Z,38.50
2022-11-27T13:52:13.651Z,40.65
2022-11-27T13:54:40.218Z,39.16
2022-11-27T13:57:06.637Z,40.91
2022-11-27T13:59:37.911Z,41.93
2022-11-27T14:02:05.795Z,42.36
2022-11-27T14:04:32.239Z,42.81
2022-11-27T14:06:58.964Z,43.22
2022-11-27T14:09:25.399Z,43.13
2022-11-27T14:11:51.852Z,43.58
2022-11-27T14:14:18.364Z,44.12
2022-11-27T14:16:44.833Z,43.46
2022-11-27T14:19:12.022Z,44.18
2022-11-27T14:21:38.790Z,44.54
2022-11-27T14:24:05.215Z,44.51
2022-11-27T14:26:31.788Z,44.88
2022-11-27T14:28:58.231Z,44.91
2022-11-27T14:31:24.686Z,45.23
2022-11-27T14:34:14.341Z,45.04
2022-11-27T14:36:37.893Z,45.10
2022-11-27T14:39:04.807Z,45.15
2022-11-27T14:41:32.381Z,45.38
2022-11-27T14:43:59.078Z,45.38
2022-11-27T14:46:26.091Z,45.68
2022-11-27T14:48:53.348Z,45.46
2022-11-27T14:51:22.044Z,45.81
2022-11-27T14:53:48.411Z,45.97
2022-11-27T14:56:15.129Z,46.10
2022-11-27T14:58:41.595Z,45.87
2022-11-27T15:01:08.016Z,45.77
2022-11-27T15:03:34.610Z,45.60
2022-11-27T15:06:01.482Z,47.20
2022-11-27T15:08:28.230Z,56.65
2022-11-27T15:10:56.797Z,56.51
2022-11-27T15:13:26.610Z,51.89
2022-11-27T15:15:53.225Z,48.42
2022-11-27T15:18:19.939Z,44.67
2022-11-27T15:20:46.808Z,43.86
2022-11-27T15:23:13.229Z,46.39
2022-11-27T15:25:39.903Z,46.07
2022-11-27T15:28:06.292Z,44.57
2022-11-27T15:30:35.883Z,46.15
2022-11-27T15:33:02.547Z,45.70
2022-11-27T15:35:31.772Z,45.19
2022-11-27T15:37:58.297Z,45.31
2022-11-27T15:40:24.750Z,46.09
2022-11-27T15:42:51.284Z,45.70
2022-11-27T15:45:17.705Z,45.81
2022-11-27T15:47:44.636Z,45.97
2022-11-27T15:50:11.899Z,46.05
2022-11-27T15:52:38.432Z,46.25
2022-11-27T15:55:04.851Z,46.04
2022-11-27T15:57:31.263Z,46.50
2022-11-27T15:59:57.772Z,46.29
2022-11-27T16:02:24.636Z,46.40
2022-11-27T16:04:51.502Z,46.32
2022-11-27T16:07:18.410Z,45.94
2022-11-27T16:09:45.136Z,46.23
2022-11-27T16:12:11.596Z,45.63
2022-11-27T16:14:38.414Z,46.63
2022-11-27T16:17:05.519Z,46.33
2022-11-27T16:19:32.211Z,46.45
2022-11-27T16:22:01.801Z,46.83
2022-11-27T16:24:28.618Z,46.83
2022-11-27T16:26:55.481Z,47.07
2022-11-27T16:29:22.769Z,46.82
2022-11-27T16:31:49.949Z,46.30
2022-11-27T16:34:16.763Z,46.67
2022-11-27T16:36:44.160Z,46.80
2022-11-27T16:39:11.663Z,46.78
2022-11-27T16:41:38.400Z,46.35
2022-11-27T16:44:05.083Z,46.62
2022-11-27T16:46:31.703Z,46.54
2022-11-27T16:48:59.591Z,47.01
2022-11-27T16:51:26.424Z,47.05
2022-11-27T16:53:53.031Z,46.87
2022-11-27T16:56:19.743Z,46.73
2022-11-27T16:58:46.716Z,46.40
2022-11-27T17:01:13.575Z,46.73
2022-11-27T17:03:40.419Z,46.83
2022-11-27T17:06:06.777Z,47.04
2022-11-27T17:08:33.297Z,47.31
2022-11-27T17:11:02.516Z,47.01
2022-11-27T17:13:33.001Z,47.68
2022-11-27T17:16:01.481Z,47.36
2022-11-27T17:18:28.908Z,47.73
2022-11-27T17:20:55.786Z,47.79
2022-11-27T17:23:22.493Z,47.66
2022-11-27T17:25:49.739Z,48.03
2022-11-27T17:28:16.504Z,48.74
2022-11-27T17:30:43.496Z,47.98
2022-11-27T17:33:10.274Z,48.25
2022-11-27T17:35:37.888Z,47.72
2022-11-27T17:38:05.549Z,47.61
2022-11-27T17:40:32.544Z,47.92
2022-11-27T17:43:00.273Z,47.83
2022-11-27T17:45:26.775Z,47.75
2022-11-27T17:47:53.400Z,47.91
2022-11-27T17:50:21.000Z,47.70
2022-11-27T17:52:48.035Z,47.73
2022-11-27T17:55:15.773Z,48.16
2022-11-27T17:57:42.193Z,48.24
2022-11-27T18:00:08.932Z,48.67
2022-11-27T18:02:35.998Z,48.02
2022-11-27T18:05:02.537Z,48.22
2022-11-27T18:07:34.551Z,48.35
2022-11-27T18:10:04.634Z,48.32
2022-11-27T18:12:31.699Z,48.04
2022-11-27T18:15:01.233Z,48.85
2022-11-27T18:17:28.899Z,48.25
2022-11-27T18:19:56.806Z,49.35
2022-11-27T18:22:23.753Z,48.87
2022-11-27T18:24:50.694Z,48.82
2022-11-27T18:27:17.711Z,48.42
2022-11-27T18:32:31.580Z,48.34
2022-11-27T18:34:58.491Z,48.15
2022-11-27T18:37:26.035Z,47.98
2022-11-27T18:39:55.363Z,48.09
2022-11-27T18:42:23.996Z,47.73
2022-11-27T18:44:51.146Z,48.21
2022-11-27T18:47:18.382Z,48.07
2022-11-27T18:49:45.401Z,48.24
2022-11-27T18:52:12.429Z,47.92
2022-11-27T18:54:39.401Z,48.04
2022-11-27T18:57:09.739Z,48.21
2022-11-27T18:59:36.678Z,48.45
2022-11-27T19:02:04.487Z,48.27
2022-11-27T19:04:31.703Z,48.29
2022-11-27T19:06:58.595Z,48.20
2022-11-27T19:09:25.203Z,48.19
2022-11-27T19:11:52.045Z,47.90
2022-11-27T19:14:18.911Z,48.29
2022-11-27T19:16:46.312Z,48.36
2022-11-27T19:19:52.409Z,48.13
2022-11-27T19:22:00.105Z,48.35
2022-11-27T19:24:27.440Z,56.04
2022-11-27T19:26:54.382Z,60.07
2022-11-27T19:29:21.611Z,58.96
2022-11-27T19:31:48.230Z,56.58
2022-11-27T19:34:15.118Z,52.04
2022-11-27T19:36:44.472Z,48.97
2022-11-27T19:39:11.026Z,50.04
2022-11-27T19:41:37.804Z,49.49
2022-11-27T19:44:07.360Z,50.19
2022-11-27T19:46:35.614Z,49.56
2022-11-27T19:49:02.920Z,50.02
2022-11-27T19:51:30.251Z,50.20
2022-11-27T19:53:56.714Z,50.91
2022-11-27T19:56:23.537Z,50.49
2022-11-27T19:58:50.039Z,50.92
2022-11-27T20:01:18.350Z,51.35
2022-11-27T20:03:45.266Z,51.15
2022-11-27T20:06:12.787Z,51.52
2022-11-27T20:08:39.709Z,51.72
2022-11-27T20:11:07.154Z,51.59
2022-11-27T20:13:33.900Z,51.32
2022-11-27T20:16:01.132Z,51.50
2022-11-27T20:18:27.701Z,51.07
2022-11-27T20:20:55.668Z,51.47
2022-11-27T20:23:22.651Z,51.61
2022-11-27T20:25:49.643Z,52.03
2022-11-27T20:28:16.705Z,51.94
2022-11-27T20:30:43.648Z,51.84
2022-11-27T20:33:10.474Z,52.41
2022-11-27T20:35:37.581Z,52.23
2022-11-27T20:38:04.804Z,52.39
2022-11-27T20:40:31.821Z,52.50
2022-11-27T20:42:59.057Z,53.02
2022-11-27T20:45:26.003Z,52.48
2022-11-27T20:47:54.250Z,53.36
2022-11-27T20:50:22.288Z,53.57
2022-11-27T20:52:49.217Z,52.83
2022-11-27T20:55:16.028Z,53.10
2022-11-27T20:57:43.185Z,53.19
2022-11-27T21:00:10.304Z,53.46
2022-11-27T21:02:37.452Z,53.76
2022-11-27T21:05:04.854Z,53.31
2022-11-27T21:07:31.598Z,53.51
2022-11-27T21:09:58.341Z,53.11
2022-11-27T21:12:25.228Z,53.04
2022-11-27T21:14:52.081Z,53.08
2022-11-27T21:17:18.786Z,53.08
2022-11-27T21:19:45.220Z,53.43
2022-11-27T21:22:11.866Z,53.33
2022-11-27T21:24:39.289Z,54.29
2022-11-27T21:27:05.926Z,54.61
2022-11-27T21:29:32.789Z,54.73
2022-11-27T21:31:59.513Z,54.56
2022-11-27T21:34:26.103Z,54.51
2022-11-27T21:36:52.765Z,54.09
2022-11-27T21:39:19.156Z,54.96
2022-11-27T21:41:45.567Z,55.03
2022-11-27T21:44:12.085Z,54.37
2022-11-27T21:46:38.484Z,54.43
2022-11-27T21:49:04.930Z,53.88
2022-11-27T21:51:31.393Z,54.58
2022-11-27T21:53:58.200Z,54.20
2022-11-27T21:56:24.843Z,54.03
2022-11-27T21:58:51.218Z,54.12
2022-11-27T22:01:18.640Z,53.71
2022-11-27T22:03:45.236Z,53.27
2022-11-27T22:06:12.454Z,53.81
2022-11-27T22:11:22.970Z,53.73
2022-11-27T22:13:51.392Z,53.74
2022-11-27T22:16:17.825Z,53.54
2022-11-27T22:18:45.368Z,53.89
2022-11-27T22:21:12.225Z,53.57
2022-11-27T22:23:38.623Z,53.46
2022-11-27T22:26:05.051Z,53.77
2022-11-27T22:28:31.407Z,53.50
2022-11-27T22:30:58.009Z,54.03
2022-11-27T22:33:24.533Z,54.37
2022-11-27T22:35:51.025Z,54.12
2022-11-27T22:38:17.448Z,54.13
2022-11-27T22:40:44.156Z,54.63
2022-11-27T22:43:10.596Z,54.71
2022-11-27T22:45:37.025Z,54.41
2022-11-27T22:48:03.440Z,54.53
2022-11-27T22:50:29.789Z,55.16
2022-11-27T22:52:58.524Z,55.39
2022-11-27T22:55:25.013Z,55.80
2022-11-27T22:57:51.542Z,55.20
2022-11-27T23:00:17.896Z,54.82
2022-11-27T23:02:44.781Z,53.78
2022-11-27T23:05:11.291Z,54.10
2022-11-27T23:07:43.887Z,54.88
2022-11-27T23:10:10.389Z,54.53
2022-11-27T23:12:39.095Z,54.96
2022-11-27T23:15:05.514Z,54.97
2022-11-27T23:17:32.028Z,54.92
2022-11-27T23:19:58.951Z,54.06
2022-11-27T23:22:25.349Z,54.20
2022-11-27T23:24:51.740Z,53.93
2022-11-27T23:27:18.214Z,54.34
2022-11-27T23:29:44.596Z,54.52
2022-11-27T23:32:11.175Z,54.40
2022-11-27T23:34:37.796Z,55.03
2022-11-27T23:37:04.342Z,54.75
2022-11-27T23:39:30.901Z,55.12
2022-11-27T23:41:57.438Z,54.86
2022-11-27T23:44:24.145Z,54.58
2022-11-27T23:46:50.520Z,54.36
2022-11-27T23:49:17.210Z,55.15
2022-11-27T23:51:43.591Z,55.08
2022-11-27T23:54:10.341Z,55.51
2022-11-27T23:56:36.709Z,55.07
2022-11-27T23:59:05.670Z,54.44
